Time;durP1;ratioP1;P1;durP2;ratioP2;P2;SDS_P1;SDS_P2;PMS_P1;PMS_P2;Temp;Humidity;BMP_temperature;BMP_pressure;BME280_temperature;BME280_humidity;BME280_pressure;Samples;Min_cycle;Max_cycle;Signal;HPM_P1;HPM_P2
2021/04/02 00:02:13;;;;;;;16.27;8.30;;;;;;;;;;5054275;28;20013;-74
2021/04/02 00:04:39;;;;;;;13.18;6.95;;;;;;;;;;5053978;28;20023;-74
2021/04/02 00:07:08;;;;;;;11.50;7.10;;;;;;;;;;5053590;28;20082;-74
2021/04/02 00:09:35;;;;;;;13.90;7.05;;;;;;;;;;5053903;28;20096;-74
2021/04/02 00:12:01;;;;;;;13.25;6.38;;;;;;;;;;5053946;28;20049;-74
2021/04/02 00:14:27;;;;;;;9.95;5.45;;;;;;;;;;5053421;28;20036;-74
2021/04/02 00:16:54;;;;;;;14.35;6.45;;;;;;;;;;5052895;28;20432;-74
2021/04/02 00:19:20;;;;;;;11.02;7.05;;;;;;;;;;5053792;28;20095;-74
2021/04/02 00:21:46;;;;;;;9.98;5.88;;;;;;;;;;5052206;28;20047;-74
2021/04/02 00:24:13;;;;;;;12.35;5.68;;;;;;;;;;5053749;28;20442;-74
2021/04/02 00:26:39;;;;;;;11.23;7.03;;;;;;;;;;5053169;28;20021;-74
2021/04/02 00:29:05;;;;;;;15.13;8.57;;;;;;;;;;5053530;28;20021;-75
2021/04/02 00:31:31;;;;;;;13.35;7.22;;;;;;;;;;5052197;28;20029;-74
2021/04/02 00:33:57;;;;;;;14.15;7.75;;;;;;;;;;5052985;28;20033;-75
2021/04/02 00:36:24;;;;;;;12.10;6.72;;;;;;;;;;5052207;28;20047;-74
2021/04/02 00:38:50;;;;;;;13.85;6.13;;;;;;;;;;5053330;28;20025;-74
2021/04/02 00:41:18;;;;;;;10.50;5.88;;;;;;;;;;5053174;28;20025;-74
2021/04/02 00:43:46;;;;;;;10.90;7.68;;;;;;;;;;5053402;28;20389;-74
2021/04/02 00:46:12;;;;;;;12.75;6.75;;;;;;;;;;5053169;28;20024;-74
2021/04/02 00:48:40;;;;;;;18.20;8.55;;;;;;;;;;5052781;28;20099;-74
2021/04/02 00:51:08;;;;;;;22.10;10.68;;;;;;;;;;5053120;28;20028;-74
2021/04/02 00:53:37;;;;;;;18.02;9.45;;;;;;;;;;5052709;28;20053;-73
2021/04/02 00:56:05;;;;;;;19.27;8.27;;;;;;;;;;5052549;28;20024;-74
2021/04/02 00:58:35;;;;;;;12.90;7.30;;;;;;;;;;5052906;28;20102;-73
2021/04/02 01:01:02;;;;;;;13.35;6.82;;;;;;;;;;5051787;28;20032;-74
2021/04/02 01:03:28;;;;;;;10.13;5.97;;;;;;;;;;5052664;28;20428;-73
2021/04/02 01:05:56;;;;;;;13.88;6.45;;;;;;;;;;5052815;28;20025;-73
2021/04/02 01:08:24;;;;;;;17.35;10.18;;;;;;;;;;5051515;28;20470;-73
2021/04/02 01:10:53;;;;;;;11.80;7.07;;;;;;;;;;5052408;28;20091;-73
2021/04/02 01:13:21;;;;;;;14.07;7.00;;;;;;;;;;5052586;28;20052;-73
2021/04/02 01:15:52;;;;;;;15.38;7.45;;;;;;;;;;5052278;28;20078;-73
2021/04/02 01:18:37;;;;;;;19.17;9.75;;;;;;;;;;5052687;28;20021;-73
2021/04/02 01:21:14;;;;;;;15.77;8.68;;;;;;;;;;5052635;28;20029;-73
2021/04/02 01:23:52;;;;;;;15.98;8.75;;;;;;;;;;5052263;28;20017;-73
2021/04/02 01:26:35;;;;;;;14.63;8.00;;;;;;;;;;5052592;28;20431;-73
2021/04/02 01:29:12;;;;;;;12.38;7.47;;;;;;;;;;5052259;28;20516;-73
2021/04/02 01:31:40;;;;;;;11.35;7.10;;;;;;;;;;5051984;28;20103;-73
2021/04/02 01:34:07;;;;;;;13.95;7.78;;;;;;;;;;5052365;28;20111;-73
2021/04/02 01:36:35;;;;;;;12.15;6.43;;;;;;;;;;5052443;28;20027;-73
2021/04/02 01:39:01;;;;;;;15.63;8.35;;;;;;;;;;5051913;28;20507;-73
2021/04/02 01:41:29;;;;;;;10.93;7.25;;;;;;;;;;5052522;28;20029;-74
2021/04/02 01:43:57;;;;;;;14.70;7.68;;;;;;;;;;5052124;28;20466;-74
2021/04/02 01:46:24;;;;;;;13.30;8.63;;;;;;;;;;5052191;28;20033;-74
2021/04/02 01:48:53;;;;;;;12.00;6.55;;;;;;;;;;5050992;28;20108;-74
2021/04/02 01:51:19;;;;;;;13.55;7.55;;;;;;;;;;5051832;28;20027;-73
2021/04/02 01:53:47;;;;;;;13.07;7.35;;;;;;;;;;5051936;28;20052;-73
2021/04/02 01:56:14;;;;;;;16.13;7.82;;;;;;;;;;5052176;28;20105;-73
2021/04/02 01:58:41;;;;;;;13.02;7.30;;;;;;;;;;5051741;28;20028;-73
2021/04/02 02:01:08;;;;;;;11.90;7.10;;;;;;;;;;5052338;28;20028;-73
2021/04/02 02:03:35;;;;;;;13.88;8.68;;;;;;;;;;5051060;28;20024;-74
2021/04/02 02:06:03;;;;;;;17.10;8.60;;;;;;;;;;5050546;28;20049;-74
2021/04/02 02:08:29;;;;;;;15.65;8.15;;;;;;;;;;5052117;28;20425;-74
2021/04/02 02:11:12;;;;;;;15.38;10.20;;;;;;;;;;5052072;28;20025;-73
2021/04/02 02:13:47;;;;;;;12.57;7.60;;;;;;;;;;5051552;28;20052;-74
2021/04/02 02:16:14;;;;;;;13.20;7.15;;;;;;;;;;5050682;28;20029;-72
2021/04/02 02:18:41;;;;;;;11.55;7.07;;;;;;;;;;5052021;28;20021;-73
2021/04/02 02:21:10;;;;;;;11.70;6.50;;;;;;;;;;5051696;28;20043;-74
2021/04/02 02:23:39;;;;;;;12.93;7.57;;;;;;;;;;5052152;28;20033;-74
2021/04/02 02:26:05;;;;;;;14.95;6.72;;;;;;;;;;5051447;28;20017;-74
2021/04/02 02:28:32;;;;;;;14.20;7.97;;;;;;;;;;5051921;28;20485;-74
2021/04/02 02:30:58;;;;;;;13.43;7.90;;;;;;;;;;5051836;28;20489;-74
2021/04/02 02:33:24;;;;;;;11.52;7.32;;;;;;;;;;5051439;28;20504;-74
2021/04/02 02:35:50;;;;;;;10.75;6.32;;;;;;;;;;5051789;28;20385;-74
2021/04/02 02:38:17;;;;;;;12.05;6.78;;;;;;;;;;5050475;28;20021;-73
2021/04/02 02:40:43;;;;;;;11.23;7.03;;;;;;;;;;5053314;28;20024;-73
2021/04/02 02:43:09;;;;;;;12.07;7.30;;;;;;;;;;5055699;28;20369;-74
2021/04/02 02:45:36;;;;;;;17.80;9.85;;;;;;;;;;5055568;28;20025;-74
2021/04/02 02:48:02;;;;;;;22.40;11.80;;;;;;;;;;5055044;28;20334;-74
2021/04/02 02:50:33;;;;;;;19.40;11.40;;;;;;;;;;5055429;28;20025;-74
2021/04/02 02:53:00;;;;;;;17.63;9.68;;;;;;;;;;5055148;28;20052;-73
2021/04/02 02:55:28;;;;;;;15.48;9.55;;;;;;;;;;5054986;28;20384;-74
2021/04/02 02:57:56;;;;;;;15.10;9.00;;;;;;;;;;5054045;28;20021;-73
2021/04/02 03:00:25;;;;;;;16.88;9.75;;;;;;;;;;5055298;28;20474;-73
2021/04/02 03:02:53;;;;;;;15.20;10.10;;;;;;;;;;5053626;28;20051;-74
2021/04/02 03:05:21;;;;;;;14.27;8.30;;;;;;;;;;5055483;28;20048;-73
2021/04/02 03:07:50;;;;;;;15.02;9.35;;;;;;;;;;5055444;28;20408;-73
2021/04/02 03:10:16;;;;;;;12.52;7.50;;;;;;;;;;5054707;28;20032;-74
2021/04/02 03:12:43;;;;;;;14.63;8.90;;;;;;;;;;5055014;28;20025;-73
2021/04/02 03:15:12;;;;;;;13.15;7.68;;;;;;;;;;5054912;28;20029;-74
2021/04/02 03:17:40;;;;;;;12.60;7.60;;;;;;;;;;5054647;28;20017;-73
2021/04/02 03:20:07;;;;;;;10.30;6.82;;;;;;;;;;5054772;28;20021;-74
2021/04/02 03:22:34;;;;;;;15.20;7.47;;;;;;;;;;5054696;28;20029;-74
2021/04/02 03:25:01;;;;;;;15.43;9.00;;;;;;;;;;5054881;28;20021;-74
2021/04/02 03:27:29;;;;;;;22.52;9.48;;;;;;;;;;5054724;28;20025;-74
2021/04/02 03:29:55;;;;;;;14.65;9.15;;;;;;;;;;5054343;28;20025;-75
2021/04/02 03:32:22;;;;;;;20.40;10.25;;;;;;;;;;5054543;28;20385;-74
2021/04/02 03:34:50;;;;;;;15.98;9.38;;;;;;;;;;5054442;28;20041;-73
2021/04/02 03:37:17;;;;;;;17.05;9.43;;;;;;;;;;5054008;28;20429;-72
2021/04/02 03:39:45;;;;;;;17.92;9.93;;;;;;;;;;5054497;28;20025;-73
2021/04/02 03:42:12;;;;;;;15.57;8.35;;;;;;;;;;5054721;28;20051;-74
2021/04/02 03:44:40;;;;;;;11.88;7.68;;;;;;;;;;5054101;28;20029;-74
2021/04/02 03:47:11;;;;;;;16.08;8.75;;;;;;;;;;5054322;28;20025;-74
2021/04/02 03:49:38;;;;;;;14.35;7.95;;;;;;;;;;5052998;28;20498;-75
2021/04/02 03:52:09;;;;;;;13.57;7.32;;;;;;;;;;5053725;28;20078;-74
2021/04/02 03:54:36;;;;;;;18.30;9.77;;;;;;;;;;5054000;28;20052;-74
2021/04/02 03:57:03;;;;;;;15.27;9.68;;;;;;;;;;5054137;28;20025;-74
2021/04/02 03:59:30;;;;;;;15.30;9.15;;;;;;;;;;5053834;28;20401;-74
2021/04/02 04:01:56;;;;;;;22.20;9.63;;;;;;;;;;5054286;28;20021;-74
2021/04/02 04:04:24;;;;;;;15.57;8.80;;;;;;;;;;5054196;28;20104;-74
2021/04/02 04:06:54;;;;;;;14.82;9.85;;;;;;;;;;5052800;28;20416;-74
2021/04/02 04:09:20;;;;;;;16.45;8.82;;;;;;;;;;5053962;28;20389;-75
2021/04/02 04:11:48;;;;;;;11.77;7.75;;;;;;;;;;5053562;28;20051;-73
2021/04/02 04:14:15;;;;;;;16.80;8.48;;;;;;;;;;5053723;28;20434;-73
2021/04/02 04:16:41;;;;;;;12.00;7.13;;;;;;;;;;5053799;28;20036;-74
2021/04/02 04:19:09;;;;;;;15.18;8.63;;;;;;;;;;5053382;28;20036;-74
2021/04/02 04:21:39;;;;;;;13.10;7.90;;;;;;;;;;5053833;28;20025;-74
2021/04/02 04:24:06;;;;;;;16.60;9.40;;;;;;;;;;5054005;28;20095;-74
2021/04/02 04:26:33;;;;;;;17.58;9.88;;;;;;;;;;5053310;28;20044;-74
2021/04/02 04:28:59;;;;;;;18.58;10.13;;;;;;;;;;5053617;28;20078;-74
2021/04/02 04:31:26;;;;;;;14.25;8.50;;;;;;;;;;5053579;28;20582;-74
2021/04/02 04:33:54;;;;;;;18.98;10.02;;;;;;;;;;5052992;28;20025;-74
2021/04/02 04:36:21;;;;;;;19.67;10.40;;;;;;;;;;5053508;28;20029;-74
2021/04/02 04:38:49;;;;;;;20.52;10.23;;;;;;;;;;5053398;28;20377;-74
2021/04/02 04:41:16;;;;;;;17.40;10.73;;;;;;;;;;5051616;28;20389;-74
2021/04/02 04:43:44;;;;;;;14.82;9.02;;;;;;;;;;5053546;28;20551;-74
2021/04/02 04:46:10;;;;;;;16.40;10.32;;;;;;;;;;5052130;28;20055;-74
2021/04/02 04:48:36;;;;;;;17.48;10.48;;;;;;;;;;5052999;28;20048;-74
2021/04/02 04:51:04;;;;;;;20.13;12.32;;;;;;;;;;5053194;28;20064;-74
2021/04/02 04:53:31;;;;;;;20.60;12.90;;;;;;;;;;5052844;28;20051;-74
2021/04/02 04:56:02;;;;;;;21.35;13.05;;;;;;;;;;5051514;28;20547;-74
2021/04/02 04:58:30;;;;;;;22.60;13.05;;;;;;;;;;5053216;28;20055;-74
2021/04/02 05:00:57;;;;;;;17.75;9.70;;;;;;;;;;5052556;28;20397;-74
2021/04/02 05:03:24;;;;;;;17.02;10.07;;;;;;;;;;5052620;28;20021;-74
2021/04/02 05:05:54;;;;;;;14.32;9.48;;;;;;;;;;5053105;28;20485;-74
2021/04/02 05:08:23;;;;;;;15.95;8.77;;;;;;;;;;5052533;28;20056;-74
2021/04/02 05:10:52;;;;;;;16.80;10.73;;;;;;;;;;5052837;28;20025;-74
2021/04/02 05:13:20;;;;;;;26.52;12.50;;;;;;;;;;5052730;28;20049;-74
2021/04/02 05:15:46;;;;;;;26.83;15.45;;;;;;;;;;5052381;28;20028;-74
2021/04/02 05:18:14;;;;;;;23.80;13.13;;;;;;;;;;5052673;28;20017;-74
2021/04/02 05:20:44;;;;;;;21.77;13.07;;;;;;;;;;5051369;28;20537;-74
2021/04/02 05:23:11;;;;;;;22.42;10.63;;;;;;;;;;5052394;28;20060;-74
2021/04/02 05:25:37;;;;;;;15.30;10.23;;;;;;;;;;5051571;28;20033;-74
2021/04/02 05:28:05;;;;;;;18.33;10.63;;;;;;;;;;5052526;28;20021;-73
2021/04/02 05:30:31;;;;;;;24.08;13.98;;;;;;;;;;5050822;28;20031;-73
2021/04/02 05:32:58;;;;;;;25.17;14.13;;;;;;;;;;5052521;28;20029;-74
2021/04/02 05:35:24;;;;;;;19.90;13.00;;;;;;;;;;5052536;28;20028;-74
2021/04/02 05:37:50;;;;;;;25.90;11.18;;;;;;;;;;5052058;28;20019;-73
2021/04/02 05:40:17;;;;;;;28.83;15.40;;;;;;;;;;5052342;28;20047;-74
2021/04/02 05:43:07;;;;;;;22.58;13.85;;;;;;;;;;5052499;28;20528;-74
2021/04/02 05:45:36;;;;;;;16.55;10.02;;;;;;;;;;5051428;28;20024;-74
2021/04/02 05:48:02;;;;;;;20.33;11.55;;;;;;;;;;5052247;28;20104;-74
2021/04/02 05:50:30;;;;;;;21.05;12.57;;;;;;;;;;5050919;28;20021;-74
2021/04/02 05:52:58;;;;;;;26.73;13.27;;;;;;;;;;5052281;28;20040;-74
2021/04/02 05:55:25;;;;;;;22.30;10.05;;;;;;;;;;5051205;28;20107;-73
2021/04/02 05:57:52;;;;;;;20.10;12.00;;;;;;;;;;5051964;28;20096;-74
2021/04/02 06:00:18;;;;;;;18.52;11.73;;;;;;;;;;5052362;28;20022;-74
2021/04/02 06:02:46;;;;;;;20.25;10.98;;;;;;;;;;5052568;28;20051;-74
2021/04/02 06:05:12;;;;;;;22.50;12.30;;;;;;;;;;5051917;28;20029;-74
2021/04/02 06:07:39;;;;;;;24.05;11.40;;;;;;;;;;5052149;28;20385;-73
2021/04/02 06:10:06;;;;;;;20.20;12.07;;;;;;;;;;5052204;28;20052;-73
2021/04/02 06:12:35;;;;;;;15.23;9.75;;;;;;;;;;5049266;28;20029;-74
2021/04/02 06:15:02;;;;;;;26.60;13.23;;;;;;;;;;5052685;28;20044;-73
2021/04/02 06:17:28;;;;;;;21.73;13.35;;;;;;;;;;5056089;28;20095;-72
2021/04/02 06:20:06;;;;;;;16.02;10.40;;;;;;;;;;5055687;28;20047;-72
2021/04/02 06:22:33;;;;;;;16.95;10.82;;;;;;;;;;5056098;28;20097;-72
2021/04/02 06:25:02;;;;;;;17.60;11.00;;;;;;;;;;5056111;28;20017;-71
2021/04/02 06:27:29;;;;;;;14.68;9.38;;;;;;;;;;5055786;28;20032;-73
2021/04/02 06:30:03;;;;;;;24.42;14.05;;;;;;;;;;5055867;28;20025;-73
2021/04/02 06:32:33;;;;;;;18.65;10.30;;;;;;;;;;5055520;28;20032;-73
2021/04/02 06:35:06;;;;;;;17.60;10.65;;;;;;;;;;5055642;28;20037;-73
2021/04/02 06:37:33;;;;;;;25.17;14.95;;;;;;;;;;5055539;28;20031;-71
2021/04/02 06:39:59;;;;;;;27.42;14.82;;;;;;;;;;5055265;28;20021;-72
2021/04/02 06:42:34;;;;;;;24.17;13.02;;;;;;;;;;5055659;28;20025;-73
2021/04/02 06:45:04;;;;;;;23.67;13.77;;;;;;;;;;5055713;28;20477;-71
2021/04/02 06:47:37;;;;;;;23.20;12.30;;;;;;;;;;5055521;28;20029;-71
2021/04/02 06:50:14;;;;;;;19.45;12.23;;;;;;;;;;5054119;28;20054;-72
2021/04/02 06:52:41;;;;;;;15.48;10.52;;;;;;;;;;5055171;28;20025;-73
2021/04/02 06:55:08;;;;;;;22.33;14.05;;;;;;;;;;5054683;28;20148;-71
2021/04/02 06:57:35;;;;;;;22.13;13.82;;;;;;;;;;5055411;28;20040;-73
2021/04/02 07:00:01;;;;;;;22.95;14.23;;;;;;;;;;5055166;28;20082;-72
2021/04/02 07:02:28;;;;;;;23.63;14.30;;;;;;;;;;5054619;28;20021;-74
2021/04/02 07:04:55;;;;;;;20.08;13.55;;;;;;;;;;5054065;28;20025;-73
2021/04/02 07:07:21;;;;;;;28.73;15.55;;;;;;;;;;5055331;28;20104;-72
2021/04/02 07:09:48;;;;;;;23.40;16.48;;;;;;;;;;5053468;28;20437;-72
2021/04/02 07:12:14;;;;;;;23.50;16.48;;;;;;;;;;5054940;28;20031;-72
2021/04/02 07:14:42;;;;;;;22.38;14.40;;;;;;;;;;5054467;28;20494;-72
2021/04/02 07:17:08;;;;;;;45.38;23.90;;;;;;;;;;5054948;28;20031;-71
2021/04/02 07:19:34;;;;;;;32.92;18.83;;;;;;;;;;5054812;28;20515;-76
2021/04/02 07:22:01;;;;;;;27.80;14.40;;;;;;;;;;5054853;28;20025;-78
2021/04/02 07:24:27;;;;;;;22.75;15.80;;;;;;;;;;5054290;28;20021;-76
2021/04/02 07:26:54;;;;;;;17.85;11.98;;;;;;;;;;5048526;28;20025;-76
2021/04/02 07:29:23;;;;;;;22.85;15.50;;;;;;;;;;5053355;28;20493;-79
2021/04/02 07:31:49;;;;;;;20.58;12.77;;;;;;;;;;5052903;28;20021;-74
2021/04/02 07:35:24;;;;;;;21.88;12.73;;;;;;;;;;5068076;28;20437;-79
2021/04/02 07:37:51;;;;;;;19.52;13.35;;;;;;;;;;5067321;28;20487;-76
2021/04/02 07:40:20;;;;;;;16.77;10.95;;;;;;;;;;5063439;28;20471;-78
2021/04/02 07:43:52;;;;;;;23.52;12.73;;;;;;;;;;5116023;27;20339;-79
2021/04/02 07:46:28;;;;;;;17.40;11.25;;;;;;;;;;5097449;28;20024;-79
2021/04/02 07:49:11;;;;;;;17.20;11.32;;;;;;;;;;5095117;28;20471;-77
2021/04/02 07:55:37;;;;;;;18.50;11.80;;;;;;;;;;5069768;28;20449;-78
2021/04/02 07:59:10;;;;;;;21.13;10.20;;;;;;;;;;5068780;28;20383;-75
2021/04/02 08:01:36;;;;;;;22.08;13.10;;;;;;;;;;5066797;28;20159;-72
2021/04/02 08:06:39;;;;;;;18.27;9.63;;;;;;;;;;5087923;27;20382;-71
2021/04/02 08:13:19;;;;;;;22.17;13.38;;;;;;;;;;5128675;27;20380;-69
2021/04/02 08:15:45;;;;;;;21.50;11.90;;;;;;;;;;5110300;28;20452;-69
2021/04/02 08:18:21;;;;;;;16.75;9.48;;;;;;;;;;5128388;28;20043;-70
2021/04/02 08:20:54;;;;;;;15.02;8.75;;;;;;;;;;5110446;28;20080;-70
2021/04/02 08:24:37;;;;;;;15.82;9.88;;;;;;;;;;5069852;28;20387;-70
2021/04/02 08:29:08;;;;;;;18.17;11.13;;;;;;;;;;5069754;28;20435;-71
2021/04/02 08:33:15;;;;;;;14.52;9.75;;;;;;;;;;5067798;28;20748;-70
2021/04/02 08:37:30;;;;;;;19.75;11.05;;;;;;;;;;5108223;27;20422;-69
2021/04/02 08:39:58;;;;;;;17.08;10.77;;;;;;;;;;5109194;28;20020;-68
2021/04/02 08:42:28;;;;;;;17.67;12.27;;;;;;;;;;5110271;28;20480;-71
2021/04/02 08:44:54;;;;;;;18.23;11.27;;;;;;;;;;5110143;28;20459;-70
2021/04/02 08:49:21;;;;;;;15.95;9.60;;;;;;;;;;5110205;27;20432;-72
2021/04/02 08:51:48;;;;;;;16.02;9.02;;;;;;;;;;5110293;28;20036;-71
2021/04/02 08:54:16;;;;;;;12.68;8.02;;;;;;;;;;5109705;28;20020;-71
2021/04/02 08:56:43;;;;;;;13.70;7.63;;;;;;;;;;5110120;28;20052;-73
2021/04/02 08:59:11;;;;;;;13.25;7.70;;;;;;;;;;5110096;28;20028;-72
2021/04/02 09:03:07;;;;;;;9.10;5.18;;;;;;;;;;5069827;28;20384;-72
2021/04/02 09:05:34;;;;;;;10.23;6.22;;;;;;;;;;5068400;28;20644;-71
2021/04/02 09:08:00;;;;;;;11.95;6.35;;;;;;;;;;5067386;28;20025;-75
2021/04/02 09:10:27;;;;;;;11.35;6.72;;;;;;;;;;5069518;28;20059;-78
2021/04/02 09:12:54;;;;;;;11.65;6.95;;;;;;;;;;5069419;28;20385;-77
2021/04/02 09:15:27;;;;;;;10.73;6.43;;;;;;;;;;5069291;28;20021;-79
2021/04/02 09:17:53;;;;;;;;;;;;;;;;;;5070449;28;20029;-78
2021/04/02 09:20:19;;;;;;;10.00;5.95;;;;;;;;;;5069929;28;20016;-76
2021/04/02 09:22:47;;;;;;;13.40;7.82;;;;;;;;;;5067839;28;20033;-77
2021/04/02 09:25:18;;;;;;;13.20;8.00;;;;;;;;;;5068993;28;20500;-75
2021/04/02 09:27:44;;;;;;;12.90;6.50;;;;;;;;;;5067975;28;20028;-76
2021/04/02 09:30:24;;;;;;;20.70;9.80;;;;;;;;;;5068899;28;20021;-77
2021/04/02 09:32:50;;;;;;;12.13;7.80;;;;;;;;;;5066769;28;20031;-78
2021/04/02 09:35:16;;;;;;;11.25;7.30;;;;;;;;;;5067073;28;20017;-75
2021/04/02 09:37:43;;;;;;;11.38;6.75;;;;;;;;;;5065966;28;20591;-76
2021/04/02 09:40:09;;;;;;;11.18;6.10;;;;;;;;;;5067319;28;20021;-76
2021/04/02 09:42:36;;;;;;;16.27;7.38;;;;;;;;;;5066921;28;20039;-75
2021/04/02 09:45:04;;;;;;;10.25;5.90;;;;;;;;;;5067024;28;20449;-77
2021/04/02 09:47:38;;;;;;;11.70;6.80;;;;;;;;;;5067815;28;20139;-75
2021/04/02 09:50:05;;;;;;;12.32;5.13;;;;;;;;;;5068488;28;20027;-74
2021/04/02 09:52:31;;;;;;;11.20;5.78;;;;;;;;;;5068706;28;20099;-77
2021/04/02 09:54:58;;;;;;;11.40;7.03;;;;;;;;;;5068559;28;20025;-79
2021/04/02 09:57:24;;;;;;;8.25;6.10;;;;;;;;;;5066920;28;20090;-74
2021/04/02 09:59:50;;;;;;;11.65;5.88;;;;;;;;;;5068726;28;20029;-76
2021/04/02 10:02:16;;;;;;;12.05;5.72;;;;;;;;;;5068461;28;20128;-75
2021/04/02 10:04:42;;;;;;;11.57;5.80;;;;;;;;;;5068118;28;20389;-75
2021/04/02 10:07:09;;;;;;;12.57;5.72;;;;;;;;;;5068377;28;20095;-75
2021/04/02 10:09:35;;;;;;;8.63;5.68;;;;;;;;;;5068256;28;20071;-75
2021/04/02 10:12:01;;;;;;;10.18;4.65;;;;;;;;;;5067105;28;20472;-78
2021/04/02 10:14:27;;;;;;;8.35;5.35;;;;;;;;;;5053529;28;20412;-78
2021/04/02 10:16:54;;;;;;;12.88;8.27;;;;;;;;;;5054400;28;20461;-79
2021/04/02 10:19:20;;;;;;;11.30;6.03;;;;;;;;;;5055551;28;20024;-81
2021/04/02 10:21:46;;;;;;;9.85;5.07;;;;;;;;;;5054101;28;20055;-81
2021/04/02 10:25:48;;;;;;;8.88;4.90;;;;;;;;;;5069620;28;20798;-77
2021/04/02 10:28:15;;;;;;;8.45;4.15;;;;;;;;;;5069548;28;20075;-76
2021/04/02 10:30:41;;;;;;;8.90;5.05;;;;;;;;;;5069542;28;20028;-79
2021/04/02 10:33:07;;;;;;;8.40;4.72;;;;;;;;;;5069880;28;20101;-78
2021/04/02 10:35:35;;;;;;;8.10;4.25;;;;;;;;;;5069421;28;20096;-74
2021/04/02 10:38:01;;;;;;;14.45;5.85;;;;;;;;;;5069534;28;20381;-76
2021/04/02 10:40:27;;;;;;;10.50;5.22;;;;;;;;;;5067695;28;20033;-75
2021/04/02 10:42:53;;;;;;;8.85;5.15;;;;;;;;;;5068368;28;20021;-76
2021/04/02 10:45:20;;;;;;;9.52;4.90;;;;;;;;;;5067715;28;20033;-77
2021/04/02 10:47:46;;;;;;;7.70;4.78;;;;;;;;;;5067390;28;20016;-74
2021/04/02 10:50:12;;;;;;;9.40;4.55;;;;;;;;;;5067575;28;20392;-76
2021/04/02 10:52:38;;;;;;;8.63;4.60;;;;;;;;;;5067108;28;20024;-79
2021/04/02 10:55:05;;;;;;;9.65;4.78;;;;;;;;;;5067763;28;20489;-78
2021/04/02 10:57:31;;;;;;;12.32;6.60;;;;;;;;;;5067289;28;20417;-80
2021/04/02 10:59:58;;;;;;;9.00;5.40;;;;;;;;;;5059785;28;20021;-77
2021/04/02 11:02:24;;;;;;;10.65;4.32;;;;;;;;;;5066585;28;20079;-78
2021/04/02 11:06:49;;;;;;;8.60;3.90;;;;;;;;;;5069411;28;20441;-77
2021/04/02 11:09:15;;;;;;;8.88;4.07;;;;;;;;;;5068062;28;20025;-79
2021/04/02 11:11:41;;;;;;;8.23;4.13;;;;;;;;;;5069058;28;20404;-80
2021/04/02 11:14:07;;;;;;;9.32;4.45;;;;;;;;;;5069585;28;20028;-81
2021/04/02 11:16:34;;;;;;;13.63;6.57;;;;;;;;;;5070058;28;20032;-75
2021/04/02 11:19:00;;;;;;;13.10;7.60;;;;;;;;;;5069806;28;20031;-76
2021/04/02 11:21:26;;;;;;;19.08;7.72;;;;;;;;;;5069445;28;20385;-79
2021/04/02 11:23:53;;;;;;;16.88;7.90;;;;;;;;;;5068158;28;20448;-77
2021/04/02 11:26:19;;;;;;;24.02;10.75;;;;;;;;;;5068633;28;20250;-73
2021/04/02 11:28:45;;;;;;;20.65;9.55;;;;;;;;;;5067185;28;20369;-72
2021/04/02 11:31:12;;;;;;;12.43;5.28;;;;;;;;;;5069331;28;20028;-77
2021/04/02 11:33:38;;;;;;;10.65;6.53;;;;;;;;;;5069007;28;20016;-77
2021/04/02 11:36:05;;;;;;;12.38;4.55;;;;;;;;;;5067068;28;20434;-77
2021/04/02 11:38:31;;;;;;;6.53;2.92;;;;;;;;;;5066294;28;20025;-77
2021/04/02 11:40:58;;;;;;;8.23;4.22;;;;;;;;;;5067049;28;20106;-77
2021/04/02 11:43:24;;;;;;;9.52;3.67;;;;;;;;;;5065394;28;20636;-77
2021/04/02 11:45:50;;;;;;;11.23;3.55;;;;;;;;;;5067367;28;20497;-78
2021/04/02 11:48:16;;;;;;;9.38;4.63;;;;;;;;;;5067547;28;20021;-77
2021/04/02 11:50:43;;;;;;;8.65;3.95;;;;;;;;;;5065588;28;20389;-77
2021/04/02 11:53:09;;;;;;;8.30;4.35;;;;;;;;;;5067986;28;20051;-77
2021/04/02 11:55:35;;;;;;;8.68;4.10;;;;;;;;;;5067172;28;20032;-77
2021/04/02 11:58:01;;;;;;;9.55;5.05;;;;;;;;;;5068297;28;20020;-76
2021/04/02 12:00:28;;;;;;;9.63;4.40;;;;;;;;;;5066219;28;20067;-77
2021/04/02 12:02:55;;;;;;;9.35;4.45;;;;;;;;;;5067744;28;20044;-76
2021/04/02 12:05:24;;;;;;;7.82;3.80;;;;;;;;;;5066324;28;20045;-77
2021/04/02 12:07:53;;;;;;;11.50;5.60;;;;;;;;;;5068081;28;20381;-77
2021/04/02 12:10:20;;;;;;;9.73;4.05;;;;;;;;;;5066147;28;20033;-78
2021/04/02 12:12:46;;;;;;;7.20;3.55;;;;;;;;;;5067990;28;20017;-77
2021/04/02 12:15:13;;;;;;;10.40;4.07;;;;;;;;;;5067822;28;20020;-76
2021/04/02 12:17:39;;;;;;;7.43;4.00;;;;;;;;;;5057082;28;20028;-76
2021/04/02 12:20:14;;;;;;;11.20;3.85;;;;;;;;;;5054485;28;20021;-76
2021/04/02 12:22:41;;;;;;;8.70;4.07;;;;;;;;;;5054449;28;20474;-77
2021/04/02 12:25:08;;;;;;;8.52;4.28;;;;;;;;;;5054029;28;20033;-76
2021/04/02 12:27:34;;;;;;;8.45;4.68;;;;;;;;;;5053177;28;20045;-77
2021/04/02 12:30:00;;;;;;;10.07;4.82;;;;;;;;;;5054506;28;20104;-77
2021/04/02 12:32:27;;;;;;;10.85;5.07;;;;;;;;;;5053878;28;20032;-77
2021/04/02 12:34:53;;;;;;;13.80;5.95;;;;;;;;;;5054465;28;20025;-77
2021/04/02 12:37:19;;;;;;;11.90;5.20;;;;;;;;;;5053222;28;20036;-76
2021/04/02 12:39:46;;;;;;;10.65;4.93;;;;;;;;;;5054130;28;20049;-76
2021/04/02 12:42:12;;;;;;;9.80;5.03;;;;;;;;;;5054007;28;20048;-76
2021/04/02 12:44:38;;;;;;;9.52;5.00;;;;;;;;;;5053937;28;20437;-77
2021/04/02 12:47:05;;;;;;;14.65;4.65;;;;;;;;;;5052717;28;20029;-77
2021/04/02 12:49:31;;;;;;;10.55;4.63;;;;;;;;;;5053951;28;20017;-77
2021/04/02 12:51:57;;;;;;;9.77;5.13;;;;;;;;;;5052786;28;20033;-77
2021/04/02 12:54:24;;;;;;;7.82;4.68;;;;;;;;;;5053487;28;20075;-78
2021/04/02 12:56:50;;;;;;;8.57;4.40;;;;;;;;;;5054533;28;20071;-78
2021/04/02 12:59:16;;;;;;;8.00;3.90;;;;;;;;;;5053924;28;20076;-78
2021/04/02 13:01:42;;;;;;;11.05;4.35;;;;;;;;;;5054330;28;20031;-78
2021/04/02 13:04:08;;;;;;;11.00;5.20;;;;;;;;;;5054246;28;20017;-77
2021/04/02 13:06:35;;;;;;;12.10;5.00;;;;;;;;;;5053735;28;20045;-79
2021/04/02 13:09:02;;;;;;;11.57;4.72;;;;;;;;;;5053563;28;20013;-77
2021/04/02 13:11:29;;;;;;;10.80;5.22;;;;;;;;;;5054175;28;20025;-78
2021/04/02 13:13:55;;;;;;;9.68;4.82;;;;;;;;;;5053782;28;20021;-77
2021/04/02 13:16:22;;;;;;;12.35;5.47;;;;;;;;;;5054247;28;20028;-78
2021/04/02 13:18:48;;;;;;;6.13;3.58;;;;;;;;;;5054301;28;20075;-76
2021/04/02 13:21:14;;;;;;;7.85;4.18;;;;;;;;;;5053759;28;20021;-78
2021/04/02 13:23:41;;;;;;;24.27;13.10;;;;;;;;;;5053909;28;20366;-77
2021/04/02 13:26:25;;;;;;;14.25;7.38;;;;;;;;;;5069924;28;20539;-76
2021/04/02 13:28:51;;;;;;;9.32;5.32;;;;;;;;;;5069261;28;20024;-78
2021/04/02 13:31:18;;;;;;;11.85;6.05;;;;;;;;;;5069650;28;20082;-78
2021/04/02 13:33:44;;;;;;;7.53;4.10;;;;;;;;;;5068336;28;20029;-78
2021/04/02 13:36:12;;;;;;;14.13;7.32;;;;;;;;;;5069105;28;20078;-77
2021/04/02 13:40:28;;;;;;;10.48;5.47;;;;;;;;;;5069974;28;20396;-78
2021/04/02 13:42:54;;;;;;;6.13;3.92;;;;;;;;;;5069993;28;20067;-77
2021/04/02 13:45:20;;;;;;;5.82;3.50;;;;;;;;;;5070165;28;20025;-77
2021/04/02 13:47:49;;;;;;;10.38;5.07;;;;;;;;;;5068939;28;20042;-77
2021/04/02 13:50:17;;;;;;;12.98;6.93;;;;;;;;;;5069877;28;20067;-78
2021/04/02 13:52:44;;;;;;;7.20;3.63;;;;;;;;;;5070035;28;20046;-78
2021/04/02 13:55:11;;;;;;;8.27;3.85;;;;;;;;;;5069762;28;20029;-77
2021/04/02 13:57:41;;;;;;;8.65;3.78;;;;;;;;;;5069363;28;20603;-77
2021/04/02 14:00:09;;;;;;;6.68;3.42;;;;;;;;;;5069756;28;20554;-78
2021/04/02 14:02:36;;;;;;;9.25;4.55;;;;;;;;;;5069200;28;20094;-77
2021/04/02 14:05:02;;;;;;;10.25;4.88;;;;;;;;;;5069311;28;20029;-78
2021/04/02 14:07:28;;;;;;;10.65;5.20;;;;;;;;;;5069232;28;20021;-78
2021/04/02 14:09:54;;;;;;;12.60;3.60;;;;;;;;;;5067456;28;20060;-78
2021/04/02 14:12:21;;;;;;;9.73;4.15;;;;;;;;;;5069152;28;20027;-78
2021/04/02 14:14:47;;;;;;;8.50;3.88;;;;;;;;;;5069080;28;20090;-78
2021/04/02 14:17:15;;;;;;;11.05;4.40;;;;;;;;;;5068797;28;20021;-78
2021/04/02 14:19:41;;;;;;;7.25;3.47;;;;;;;;;;5069099;28;20033;-77
2021/04/02 14:22:08;;;;;;;7.68;3.13;;;;;;;;;;5068855;28;20096;-77
2021/04/02 14:24:34;;;;;;;7.43;3.22;;;;;;;;;;5068459;28;20474;-77
2021/04/02 14:27:00;;;;;;;12.27;3.70;;;;;;;;;;5068620;28;20029;-77
2021/04/02 14:29:26;;;;;;;5.43;2.90;;;;;;;;;;5068747;28;20025;-77
2021/04/02 14:31:52;;;;;;;5.70;2.90;;;;;;;;;;5068401;28;20135;-78
2021/04/02 14:34:19;;;;;;;6.85;2.70;;;;;;;;;;5068732;28;20040;-78
2021/04/02 14:36:46;;;;;;;6.65;3.38;;;;;;;;;;5068851;28;20028;-78
2021/04/02 14:39:12;;;;;;;5.88;2.53;;;;;;;;;;5068056;28;20119;-77
2021/04/02 14:41:39;;;;;;;5.55;2.30;;;;;;;;;;5068565;28;20040;-78
2021/04/02 14:44:05;;;;;;;7.82;2.50;;;;;;;;;;5068436;28;20071;-77
2021/04/02 14:46:32;;;;;;;7.10;2.72;;;;;;;;;;5067921;28;20020;-77
2021/04/02 14:48:59;;;;;;;7.05;2.72;;;;;;;;;;5068287;28;20064;-79
2021/04/02 14:51:25;;;;;;;5.80;3.00;;;;;;;;;;5056737;28;20032;-78
2021/04/02 14:53:51;;;;;;;8.00;3.25;;;;;;;;;;5053738;28;20381;-77
2021/04/02 14:56:18;;;;;;;7.75;3.40;;;;;;;;;;5055194;28;20021;-77
2021/04/02 14:58:44;;;;;;;7.53;3.40;;;;;;;;;;5054739;28;20028;-77
2021/04/02 15:01:11;;;;;;;8.98;4.10;;;;;;;;;;5055193;28;20508;-76